createdAt,value
2023-03-02T00:00:16.463Z,23.23
2023-03-02T00:02:47.298Z,23.80
2023-03-02T00:05:14.468Z,23.10
2023-03-02T00:07:41.458Z,22.10
2023-03-02T00:10:09.277Z,22.65
2023-03-02T00:12:36.280Z,22.10
2023-03-02T00:15:05.746Z,20.88
2023-03-02T00:17:32.835Z,21.70
2023-03-02T00:20:11.741Z,20.33
2023-03-02T00:22:40.868Z,20.63
2023-03-02T00:25:09.201Z,20.95
2023-03-02T00:27:36.358Z,19.50
2023-03-02T00:30:03.676Z,20.98
2023-03-02T00:32:30.736Z,20.15
2023-03-02T00:34:58.431Z,20.58
2023-03-02T00:37:28.263Z,20.88
2023-03-02T00:42:22.670Z,20.02
2023-03-02T00:44:49.632Z,21.00
2023-03-02T00:47:17.453Z,20.38
2023-03-02T00:49:49.398Z,20.92
2023-03-02T00:52:17.370Z,20.98
2023-03-02T00:54:44.295Z,21.05
2023-03-02T00:57:11.531Z,21.15
2023-03-02T00:59:39.697Z,20.73
2023-03-02T01:02:29.419Z,21.27
2023-03-02T01:04:56.865Z,20.02
2023-03-02T01:07:28.589Z,20.48
2023-03-02T01:09:55.716Z,20.77
2023-03-02T01:12:22.983Z,21.88
2023-03-02T01:14:50.940Z,21.02
2023-03-02T01:17:19.519Z,19.17
2023-03-02T01:19:46.795Z,20.05
2023-03-02T01:22:14.094Z,19.40
2023-03-02T01:24:41.046Z,18.35
2023-03-02T01:27:09.367Z,18.00
2023-03-02T01:29:36.826Z,18.90
2023-03-02T01:32:04.965Z,19.05
2023-03-02T01:34:32.176Z,18.45
2023-03-02T01:36:59.633Z,17.73
2023-03-02T01:39:26.571Z,16.70
2023-03-02T01:41:53.571Z,16.63
2023-03-02T01:45:06.710Z,15.50
2023-03-02T01:47:53.721Z,14.73
2023-03-02T01:50:31.283Z,16.75
2023-03-02T01:52:59.727Z,16.00
2023-03-02T01:55:36.014Z,15.52
2023-03-02T01:58:05.437Z,15.80
2023-03-02T02:00:38.115Z,16.88
2023-03-02T02:03:12.760Z,16.90
2023-03-02T02:05:42.974Z,17.17
2023-03-02T02:08:10.543Z,17.75
2023-03-02T02:10:39.611Z,18.60
2023-03-02T02:13:17.607Z,19.27
2023-03-02T02:15:44.620Z,17.40
2023-03-02T02:21:15.614Z,16.52
2023-03-02T02:24:04.209Z,17.75
2023-03-02T02:26:43.932Z,17.60
2023-03-02T02:29:22.887Z,17.63
2023-03-02T06:18:15.558Z,11.55
2023-03-02T06:20:42.630Z,12.95
2023-03-02T06:35:36.726Z,14.07
2023-03-02T06:38:03.855Z,13.68
2023-03-02T06:40:31.513Z,13.27
2023-03-02T06:46:00.897Z,14.32
2023-03-02T06:55:32.822Z,14.50
2023-03-02T06:58:00.061Z,14.70
2023-03-02T07:03:29.637Z,14.98
2023-03-02T07:12:25.204Z,13.88
2023-03-02T07:18:05.827Z,14.50
2023-03-02T07:20:34.961Z,15.30
2023-03-02T07:23:02.170Z,16.90
2023-03-02T07:25:29.365Z,17.23
2023-03-02T07:27:56.312Z,15.07
2023-03-02T07:30:23.363Z,16.67
2023-03-02T07:32:51.162Z,16.42
2023-03-02T07:35:18.501Z,15.40
2023-03-02T07:37:45.720Z,14.38
2023-03-02T07:40:13.605Z,14.38
2023-03-02T07:42:41.283Z,13.38
2023-03-02T07:45:08.874Z,14.10
2023-03-02T07:47:35.849Z,13.10
2023-03-02T07:50:03.205Z,12.43
2023-03-02T07:52:31.084Z,13.20
2023-03-02T07:54:58.429Z,12.55
2023-03-02T07:57:31.485Z,12.48
2023-03-02T07:59:59.724Z,13.15
2023-03-02T08:02:26.850Z,13.15
2023-03-02T08:04:53.958Z,12.38
2023-03-02T08:07:21.067Z,12.82
2023-03-02T08:09:48.093Z,12.52
2023-03-02T08:12:15.050Z,12.38
2023-03-02T08:14:42.701Z,13.25
2023-03-02T08:17:09.876Z,12.75
2023-03-02T08:19:36.875Z,12.75
2023-03-02T08:22:04.235Z,12.05
2023-03-02T08:24:31.416Z,10.35
2023-03-02T08:27:15.485Z,11.73
2023-03-02T08:29:42.794Z,12.05
2023-03-02T08:32:09.897Z,10.98
2023-03-02T08:34:37.128Z,12.50
2023-03-02T08:37:04.214Z,12.95
2023-03-02T08:39:32.224Z,12.48
2023-03-02T08:41:59.377Z,11.55
2023-03-02T08:44:26.378Z,12.00
2023-03-02T08:46:53.323Z,12.40
2023-03-02T08:49:20.261Z,11.95
2023-03-02T08:51:49.081Z,11.65
2023-03-02T08:54:16.359Z,11.43
2023-03-02T08:56:44.442Z,11.82
2023-03-02T08:59:13.683Z,12.57
2023-03-02T09:01:41.785Z,11.45
2023-03-02T09:04:10.582Z,10.32
2023-03-02T09:06:40.754Z,10.60
2023-03-02T09:09:09.107Z,10.48
2023-03-02T09:11:36.227Z,10.23
2023-03-02T09:14:04.304Z,10.25
2023-03-02T09:16:31.871Z,10.75
2023-03-02T09:18:58.890Z,10.88
2023-03-02T09:21:26.357Z,11.23
2023-03-02T09:23:55.913Z,11.38
2023-03-02T09:26:23.707Z,11.68
2023-03-02T09:28:50.661Z,11.05
2023-03-02T09:31:17.570Z,10.80
2023-03-02T09:33:45.038Z,10.80
2023-03-02T09:36:18.230Z,12.43
2023-03-02T09:38:45.114Z,10.65
2023-03-02T09:41:21.129Z,10.52
2023-03-02T09:44:06.612Z,11.10
2023-03-02T09:46:50.455Z,11.48
2023-03-02T09:49:26.001Z,11.30
2023-03-02T09:52:21.074Z,11.77
2023-03-02T09:54:48.558Z,11.52
2023-03-02T09:57:29.118Z,10.25
2023-03-02T10:00:18.586Z,10.68
2023-03-02T10:02:56.227Z,10.35
2023-03-02T10:05:31.567Z,11.05
2023-03-02T10:07:59.440Z,10.07
2023-03-02T10:10:41.406Z,10.25
2023-03-02T10:13:44.639Z,10.52
2023-03-02T10:16:26.002Z,11.50
2023-03-02T10:19:07.821Z,10.38
2023-03-02T10:21:38.456Z,10.80
2023-03-02T10:24:20.443Z,10.60
2023-03-02T10:26:59.159Z,11.35
2023-03-02T10:29:35.078Z,10.65
2023-03-02T10:32:13.597Z,11.25
2023-03-02T10:34:40.702Z,10.57
2023-03-02T10:37:21.700Z,10.90
2023-03-02T10:39:49.662Z,10.95
2023-03-02T10:42:27.667Z,11.60
2023-03-02T10:45:01.716Z,10.43
2023-03-02T10:47:29.641Z,11.27
2023-03-02T10:49:58.260Z,11.18
2023-03-02T10:52:27.887Z,11.38
2023-03-02T10:55:14.612Z,10.65
2023-03-02T10:57:44.070Z,11.27
2023-03-02T11:00:18.788Z,11.95
2023-03-02T11:02:57.713Z,11.57
2023-03-02T11:05:32.025Z,11.75
2023-03-02T11:08:03.182Z,11.30
2023-03-02T11:10:37.718Z,11.27
2023-03-02T11:13:32.289Z,11.32
2023-03-02T11:16:02.147Z,11.07
2023-03-02T11:18:43.213Z,10.57
2023-03-02T11:21:17.227Z,9.77
2023-03-02T11:23:59.871Z,11.20
2023-03-02T11:26:40.505Z,11.10
2023-03-02T11:29:22.215Z,10.80
2023-03-02T11:31:53.490Z,11.23
2023-03-02T11:34:20.596Z,11.18
2023-03-02T11:37:14.978Z,10.80
2023-03-02T11:39:55.128Z,11.43
2023-03-02T11:42:28.730Z,10.32
2023-03-02T11:44:55.708Z,10.88
2023-03-02T11:47:23.080Z,10.57
2023-03-02T11:50:00.269Z,10.35
2023-03-02T11:52:30.167Z,10.68
2023-03-02T11:55:14.323Z,10.65
2023-03-02T11:57:48.636Z,11.98
2023-03-02T12:00:39.670Z,11.35
2023-03-02T12:03:06.924Z,11.70
2023-03-02T12:05:43.387Z,11.25
2023-03-02T12:12:25.497Z,10.60
2023-03-02T12:14:52.891Z,11.77
2023-03-02T12:17:24.820Z,10.45
2023-03-02T12:20:07.675Z,10.35
2023-03-02T12:22:36.096Z,10.57
2023-03-02T12:25:21.307Z,10.30
2023-03-02T12:27:50.599Z,10.10
2023-03-02T12:30:26.246Z,9.75
2023-03-02T12:33:11.408Z,10.68
2023-03-02T12:35:39.162Z,9.55
2023-03-02T12:38:14.508Z,10.30
2023-03-02T12:41:25.512Z,10.20
2023-03-02T12:44:04.623Z,10.18
2023-03-02T12:46:37.136Z,10.00
2023-03-02T12:49:05.539Z,9.80
2023-03-02T12:51:58.331Z,9.80
2023-03-02T12:54:30.598Z,9.65
2023-03-02T12:57:03.627Z,9.82
2023-03-02T12:59:30.533Z,10.75
2023-03-02T13:02:33.810Z,11.40
2023-03-02T13:05:03.985Z,10.18
2023-03-02T13:07:35.854Z,9.18
2023-03-02T13:10:09.405Z,10.25
2023-03-02T13:12:37.926Z,10.18
2023-03-02T13:15:15.681Z,9.77
2023-03-02T13:17:42.935Z,9.60
2023-03-02T13:20:13.231Z,10.50
2023-03-02T13:22:40.847Z,10.30
2023-03-02T13:25:30.986Z,10.05
2023-03-02T13:28:10.773Z,10.25
2023-03-02T13:33:22.616Z,9.70
2023-03-02T13:35:49.948Z,9.32
2023-03-02T13:38:22.019Z,10.68
2023-03-02T13:40:51.669Z,10.10
2023-03-02T13:43:22.712Z,9.75
2023-03-02T13:45:55.791Z,9.65
2023-03-02T13:48:23.246Z,8.88
2023-03-02T13:51:03.459Z,8.82
2023-03-02T13:53:34.743Z,9.30
2023-03-02T13:56:02.848Z,8.43
2023-03-02T13:58:32.950Z,8.68
2023-03-02T14:01:00.031Z,10.30
2023-03-02T14:03:30.133Z,9.68
2023-03-02T14:05:59.114Z,9.43
2023-03-02T14:08:25.944Z,9.48
2023-03-02T14:10:54.986Z,9.88
2023-03-02T14:13:25.261Z,10.60
2023-03-02T14:15:53.554Z,10.10
2023-03-02T14:18:26.259Z,9.07
2023-03-02T14:20:53.269Z,9.48
2023-03-02T14:23:20.210Z,10.02
2023-03-02T14:25:47.202Z,9.27
2023-03-02T14:28:44.879Z,9.27
2023-03-02T14:31:13.024Z,9.17
2023-03-02T14:33:39.845Z,11.00
2023-03-02T14:36:07.140Z,9.65
2023-03-02T14:38:34.776Z,9.75
2023-03-02T14:41:01.622Z,9.40
2023-03-02T14:43:30.604Z,9.88
2023-03-02T14:45:57.518Z,9.90
2023-03-02T14:48:24.460Z,10.15
2023-03-02T14:50:51.865Z,10.07
2023-03-02T14:53:28.894Z,10.05
2023-03-02T14:55:55.841Z,10.23
2023-03-02T14:58:32.916Z,9.80
2023-03-02T15:01:00.908Z,10.52
2023-03-02T15:03:28.249Z,10.65
2023-03-02T15:06:01.569Z,11.00
2023-03-02T15:08:30.001Z,10.52
2023-03-02T15:10:57.034Z,10.63
2023-03-02T15:13:23.963Z,10.52
2023-03-02T15:15:52.718Z,9.90
2023-03-02T15:18:19.962Z,11.17
2023-03-02T15:20:47.106Z,10.95
2023-03-02T15:23:14.015Z,10.60
2023-03-02T15:25:40.947Z,10.45
2023-03-02T15:28:07.777Z,11.50
2023-03-02T15:30:34.689Z,11.30
2023-03-02T15:33:01.678Z,11.55
2023-03-02T15:35:29.353Z,11.88
2023-03-02T15:37:58.277Z,11.30
2023-03-02T15:40:25.810Z,12.32
2023-03-02T15:42:53.149Z,11.98
2023-03-02T15:45:20.233Z,12.30
2023-03-02T15:47:47.185Z,11.25
2023-03-02T15:50:14.157Z,12.38
2023-03-02T15:52:41.589Z,12.27
2023-03-02T15:55:09.156Z,11.05
2023-03-02T15:57:39.654Z,12.43
2023-03-02T16:00:07.664Z,12.43
2023-03-02T16:02:34.959Z,12.07
2023-03-02T16:05:01.995Z,12.48
2023-03-02T16:07:30.682Z,13.55
2023-03-02T16:09:57.666Z,13.57
2023-03-02T16:12:26.011Z,12.20
2023-03-02T16:14:53.008Z,12.98
2023-03-02T16:17:20.943Z,12.57
2023-03-02T16:19:47.844Z,12.52
2023-03-02T16:22:14.824Z,13.18
2023-03-02T16:24:42.054Z,13.60
2023-03-02T16:27:09.102Z,12.95
2023-03-02T16:29:36.146Z,13.63
2023-03-02T16:32:03.364Z,13.18
2023-03-02T16:34:30.366Z,14.15
2023-03-02T16:36:57.183Z,13.93
2023-03-02T16:39:24.592Z,14.32
2023-03-02T16:41:51.465Z,13.93
2023-03-02T16:44:19.054Z,15.85
2023-03-02T16:46:46.582Z,14.05
2023-03-02T16:49:13.870Z,14.02
2023-03-02T16:51:42.025Z,14.57
2023-03-02T16:54:09.106Z,14.02
2023-03-02T16:56:36.048Z,13.50
2023-03-02T16:59:03.103Z,14.25
2023-03-02T17:01:30.239Z,14.27
2023-03-02T17:03:57.321Z,14.15
2023-03-02T17:06:24.907Z,15.02
2023-03-02T17:08:51.874Z,15.02
2023-03-02T17:11:19.787Z,14.40
2023-03-02T17:13:47.183Z,14.55
2023-03-02T17:16:14.334Z,14.38
2023-03-02T17:18:41.415Z,14.52
2023-03-02T17:21:08.380Z,14.48
2023-03-02T17:23:37.074Z,15.25
2023-03-02T17:26:04.487Z,15.52
2023-03-02T17:28:31.572Z,14.65
2023-03-02T17:30:59.830Z,15.48
2023-03-02T17:33:29.520Z,14.90
2023-03-02T17:38:23.546Z,16.45
2023-03-02T17:40:50.417Z,18.02
2023-03-02T17:43:17.336Z,18.27
2023-03-02T17:45:44.494Z,20.75
2023-03-02T17:48:11.352Z,21.92
2023-03-02T17:50:38.507Z,20.83
2023-03-02T17:53:05.376Z,21.08
2023-03-02T17:55:32.311Z,20.75
2023-03-02T17:57:59.300Z,20.15
2023-03-02T18:00:26.620Z,19.50
2023-03-02T18:02:54.110Z,18.75
2023-03-02T18:05:21.882Z,19.08
2023-03-02T18:07:48.999Z,18.35
2023-03-02T18:10:16.104Z,19.63
2023-03-02T18:12:43.115Z,19.17
2023-03-02T18:15:11.681Z,20.75
2023-03-02T18:17:39.031Z,21.17
2023-03-02T18:20:06.525Z,21.02
2023-03-02T18:22:33.642Z,21.23
2023-03-02T18:25:00.502Z,21.35
2023-03-02T18:27:27.444Z,21.02
2023-03-02T18:29:54.395Z,21.35
2023-03-02T18:32:21.540Z,20.90
2023-03-02T18:34:48.465Z,21.88
2023-03-02T18:37:15.514Z,21.42
2023-03-02T18:39:42.450Z,22.80
2023-03-02T18:42:11.590Z,25.98
2023-03-02T18:44:39.502Z,25.58
2023-03-02T18:47:07.570Z,24.40
2023-03-02T18:49:34.510Z,22.50
2023-03-02T18:52:05.786Z,23.15
2023-03-02T18:54:32.918Z,22.92
2023-03-02T18:57:01.550Z,21.67
2023-03-02T18:59:29.246Z,20.30
2023-03-02T19:01:57.382Z,21.42
2023-03-02T19:04:26.620Z,20.70
2023-03-02T19:06:56.173Z,20.85
2023-03-02T19:09:23.626Z,21.67
2023-03-02T19:11:50.550Z,20.75
2023-03-02T19:14:18.092Z,23.98
2023-03-02T19:16:45.706Z,25.45
2023-03-02T19:19:12.836Z,27.35
2023-03-02T19:21:39.995Z,25.90
2023-03-02T19:24:07.442Z,25.20
2023-03-02T19:26:34.911Z,25.85
2023-03-02T19:29:01.996Z,27.10
2023-03-02T19:31:30.395Z,26.65
2023-03-02T19:33:57.811Z,26.90
2023-03-02T19:36:24.822Z,26.38
2023-03-02T19:38:51.832Z,25.70
2023-03-02T19:41:20.431Z,25.73
2023-03-02T19:43:47.717Z,24.70
2023-03-02T19:46:16.779Z,24.42
2023-03-02T19:48:43.915Z,25.15
2023-03-02T19:51:12.206Z,27.52
2023-03-02T19:53:40.270Z,27.30
2023-03-02T19:56:11.773Z,25.50
2023-03-02T19:58:47.608Z,24.77
2023-03-02T20:01:17.146Z,23.83
2023-03-02T20:03:44.355Z,22.77
2023-03-02T20:06:11.265Z,23.63
2023-03-02T20:08:38.321Z,22.13
2023-03-02T20:11:05.310Z,20.60
2023-03-02T20:13:33.917Z,21.45
2023-03-02T20:16:01.139Z,21.25
2023-03-02T20:18:28.248Z,20.77
2023-03-02T20:20:55.210Z,21.10
2023-03-02T20:23:22.512Z,20.85
2023-03-02T20:25:49.395Z,20.10
2023-03-02T20:28:19.459Z,22.05
2023-03-02T20:30:51.623Z,24.48
2023-03-02T20:33:22.236Z,22.67
2023-03-02T20:35:49.654Z,21.60
2023-03-02T20:38:21.261Z,22.40
2023-03-02T20:40:48.427Z,22.08
2023-03-02T20:43:15.441Z,22.35
2023-03-02T20:45:42.776Z,21.55
2023-03-02T20:48:09.994Z,23.33
2023-03-02T20:50:38.081Z,24.08
2023-03-02T20:53:09.184Z,22.42
2023-03-02T20:55:36.545Z,23.52
2023-03-02T20:58:05.380Z,23.73
2023-03-02T21:00:34.318Z,21.25
2023-03-02T21:03:01.390Z,20.65
2023-03-02T21:05:29.794Z,22.17
2023-03-02T21:07:57.368Z,21.75
2023-03-02T21:10:30.930Z,20.23
2023-03-02T21:12:58.063Z,21.42
2023-03-02T21:15:27.154Z,21.02
2023-03-02T21:17:55.816Z,20.13
2023-03-02T21:20:24.391Z,20.02
2023-03-02T21:22:51.403Z,20.15
2023-03-02T21:25:18.602Z,20.85
2023-03-02T21:27:45.653Z,22.58
2023-03-02T21:30:22.493Z,21.88
2023-03-02T21:32:49.772Z,21.58
2023-03-02T21:35:20.073Z,23.10
2023-03-02T21:37:49.160Z,24.50
2023-03-02T21:40:20.538Z,26.20
2023-03-02T21:42:47.723Z,24.10
2023-03-02T21:45:14.756Z,22.58
2023-03-02T21:47:42.635Z,23.75
2023-03-02T21:50:14.724Z,24.17
2023-03-02T21:52:41.567Z,26.08
2023-03-02T21:55:09.103Z,25.30
2023-03-02T21:57:36.017Z,25.58
2023-03-02T22:00:05.301Z,24.38
2023-03-02T22:02:32.652Z,24.80
2023-03-02T22:04:59.592Z,24.95
2023-03-02T22:07:26.615Z,24.02
2023-03-02T22:09:53.661Z,25.02
2023-03-02T22:12:23.644Z,24.75
2023-03-02T22:14:51.627Z,25.80
2023-03-02T22:17:21.589Z,25.98
2023-03-02T22:19:52.450Z,25.85
2023-03-02T22:22:24.314Z,27.00
2023-03-02T22:24:52.266Z,27.90
2023-03-02T22:27:23.617Z,26.92
2023-03-02T22:29:53.085Z,27.23
2023-03-02T22:32:23.153Z,27.20
2023-03-02T22:34:53.443Z,27.08
2023-03-02T22:37:23.703Z,25.92
2023-03-02T22:39:54.769Z,26.13
2023-03-02T22:42:24.133Z,26.70
2023-03-02T22:45:06.521Z,27.40
2023-03-02T22:47:33.446Z,27.25
2023-03-02T22:50:14.204Z,26.33
2023-03-02T22:52:43.917Z,27.35
2023-03-02T22:57:56.550Z,25.65
2023-03-02T23:00:35.257Z,25.35
2023-03-02T23:03:02.200Z,25.98
2023-03-02T23:05:34.634Z,25.38
2023-03-02T23:08:19.893Z,25.90
2023-03-02T23:10:48.110Z,25.35
2023-03-02T23:13:18.948Z,27.75
2023-03-02T23:15:47.080Z,25.58
2023-03-02T23:18:28.798Z,24.02
2023-03-02T23:20:56.225Z,25.67
2023-03-02T23:23:24.624Z,24.77
2023-03-02T23:25:51.546Z,23.92
2023-03-02T23:28:18.404Z,25.17
2023-03-02T23:30:45.432Z,25.05
2023-03-02T23:33:12.310Z,26.08
2023-03-02T23:35:39.896Z,25.05
2023-03-02T23:38:06.895Z,25.27
2023-03-02T23:40:33.885Z,25.88
2023-03-02T23:43:00.846Z,25.20
2023-03-02T23:45:27.887Z,25.55
2023-03-02T23:47:54.823Z,24.88
2023-03-02T23:50:21.746Z,25.40
2023-03-02T23:52:49.234Z,24.75
2023-03-02T23:55:16.415Z,25.10
2023-03-02T23:57:43.437Z,25.10
